Mc Dougal, Arkansas
Current Conditions -  °F | °C
As of 6:15 PM on Sunday 23 Nov 2014 (Local Time) from K4M9 Reporting Station
Haze Haze  
Wind Chill: 57°   Ceiling: 300
Heat Index: 57°   Visibility: 3mi
Dew Point: 57°   Wind: 10mph
Humidity: 100%   Direction: 210°SSW
Pressure: 29.35"   Gusts: NA
Location:  36.4376°N, 90.3867°W
Report Text: K4M9 240015Z AUTO 21009KT 3SM BR OVC003 14/14 A2935 RMK AO2
Loading
Personal Weather Stations






























Interactive Weather Map New forecast layout! Learn more

10-Day Weather Forecast

Advertisements
Track Severe Weather on mobile